Flight Track Log - Related Links

Times and Time Zones

All times are in EDT time to prevent confusion due to time zone crossing. See the N199CG flight status page for this flight to view local times or setup timezone preferences in your user account.

Time Position Orientation Groundspeed Altitude Reporting Facility
EDT Latitude Longitude Course Direction KTS MPH feet Rate Location/Type
Sun 04:21:00 PM 34.4802 -78.1971 310° West  Level Estimated
Sun 04:22:00 PM 34.5151 -78.2463 311° West  Level Estimated
Sun 04:23:00 PM 34.5497 -78.2958 310° West  Level FlightAware Approximate
Sun 04:24:00 PM 34.5844 -78.3453 310° West  Level FlightAware Approximate
Sun 04:25:00 PM 34.6190 -78.3948 310° West  Level FlightAware Approximate
Sun 04:26:00 PM 34.6535 -78.4444 310° West  Level FlightAware Approximate
Sun 04:27:00 PM 34.6881 -78.4941 310° West  Level FlightAware Approximate
Sun 04:28:00 PM 34.7227 -78.5437 310° West  Level FlightAware Approximate
Sun 04:29:00 PM 34.7572 -78.5935 310° West  Level FlightAware Approximate
Sun 04:30:00 PM 34.7917 -78.6432 310° West  Level FlightAware Approximate
Sun 04:31:00 PM 34.8262 -78.6930 310° West  Level FlightAware Approximate
Sun 04:32:00 PM 34.8607 -78.7429 310° West  Level FlightAware Approximate
Sun 04:33:00 PM 34.8954 -78.7925 309° West  Level Estimated
Sun 04:34:00 PM 34.9296 -78.8426 310° West  Level FlightAware Approximate
Sun 04:35:00 PM 34.9644 -78.8923 314° West  Level Estimated
Sun 04:36:00 PM 34.9996 -78.9414 311° West  Level FlightAware Approximate
Sun 04:37:00 PM 35.0348 -78.9906 311° West  Level FlightAware Approximate
Sun 04:38:00 PM 35.0694 -79.0405 307° West  Level Estimated
Sun 04:39:00 PM 35.1034 -79.0909 310° West  Level FlightAware Approximate
Sun 04:40:00 PM 35.1374 -79.1413 310° West  Level FlightAware Approximate
Sun 04:41:00 PM 35.1714 -79.1919 309° West  Level FlightAware Approximate
Sun 04:42:00 PM 35.2060 -79.2418 321° Northwest  Level Estimated
Sun 04:43:00 PM 35.2406 -79.2917 305° West  Level Estimated
Sun 04:44:00 PM 35.2744 -79.3425 309° West  Level FlightAware Approximate
Sun 04:45:00 PM 35.3091 -79.3924 315° West  Level Estimated
Sun 04:46:00 PM 35.3437 -79.4424 310° West  Level FlightAware Approximate
Sun 04:47:00 PM 35.3782 -79.4925 313° West  Level Estimated
Sun 04:48:00 PM 35.4128 -79.5425 309° West  Level Estimated
Sun 04:49:00 PM 35.4253 -79.6119 282° West  Level FlightAware Approximate
Sun 04:50:00 PM 35.4662 -79.6621 329° Northwest  Level Estimated
Sun 04:51:00 PM 35.5070 -79.7124 329° Northwest  Level Estimated
Sun 04:52:00 PM 35.5440 -79.7671 310° West  Level FlightAware Approximate
Sun 04:53:00 PM 35.5862 -79.8158 332° Northwest  Level Estimated
Sun 04:54:00 PM 35.6284 -79.8645 332° Northwest  Level Estimated
Sun 04:55:00 PM 35.6500 -79.8833 332° Northwest  Level FlightAware Approximate
Sun 04:56:00 PM 35.6545 -79.8948 332° Northwest  Level Estimated
Sun 04:57:00 PM 35.6545 -79.8948 332° Northwest  Level Estimated

Login

Don't have an account? Register now (free) for customized features, flight alerts, and more!